sensor_id;sensor_type;location;lat;lon;timestamp;temperature;humidity
11142;DHT22;5625;50.122;19.864;2024-03-06T00:00:02;4.40;99.90
11142;DHT22;5625;50.122;19.864;2024-03-06T00:02:30;4.30;99.90
11142;DHT22;5625;50.122;19.864;2024-03-06T00:05:00;4.30;99.90
11142;DHT22;5625;50.122;19.864;2024-03-06T00:07:28;4.30;99.90
11142;DHT22;5625;50.122;19.864;2024-03-06T00:09:59;4.30;99.90
11142;DHT22;5625;50.122;19.864;2024-03-06T00:12:28;4.20;99.90
11142;DHT22;5625;50.122;19.864;2024-03-06T00:14:57;4.20;99.90
11142;DHT22;5625;50.122;19.864;2024-03-06T00:17:25;4.20;99.90
11142;DHT22;5625;50.122;19.864;2024-03-06T00:19:54;4.10;99.90
11142;DHT22;5625;50.122;19.864;2024-03-06T00:22:23;4.10;99.90
11142;DHT22;5625;50.122;19.864;2024-03-06T00:24:52;4.10;99.90
11142;DHT22;5625;50.122;19.864;2024-03-06T00:27:20;4.00;99.90
11142;DHT22;5625;50.122;19.864;2024-03-06T00:29:48;4.00;99.90
11142;DHT22;5625;50.122;19.864;2024-03-06T00:32:16;4.00;99.90
11142;DHT22;5625;50.122;19.864;2024-03-06T00:34:44;4.00;99.90
11142;DHT22;5625;50.122;19.864;2024-03-06T00:37:12;4.00;99.90
11142;DHT22;5625;50.122;19.864;2024-03-06T00:39:43;4.00;99.90
11142;DHT22;5625;50.122;19.864;2024-03-06T00:42:11;4.00;99.90
11142;DHT22;5625;50.122;19.864;2024-03-06T00:44:40;4.00;99.90
11142;DHT22;5625;50.122;19.864;2024-03-06T00:47:08;4.00;99.90
11142;DHT22;5625;50.122;19.864;2024-03-06T00:49:37;4.00;99.90
11142;DHT22;5625;50.122;19.864;2024-03-06T00:52:05;3.90;99.90
11142;DHT22;5625;50.122;19.864;2024-03-06T00:54:34;3.90;99.90
11142;DHT22;5625;50.122;19.864;2024-03-06T00:57:03;3.90;99.90
11142;DHT22;5625;50.122;19.864;2024-03-06T00:59:31;3.90;99.90
11142;DHT22;5625;50.122;19.864;2024-03-06T01:01:59;3.90;99.90
11142;DHT22;5625;50.122;19.864;2024-03-06T01:04:28;3.90;99.90
11142;DHT22;5625;50.122;19.864;2024-03-06T01:06:56;3.90;99.90
11142;DHT22;5625;50.122;19.864;2024-03-06T01:09:25;3.80;99.90
11142;DHT22;5625;50.122;19.864;2024-03-06T01:11:53;3.80;99.90
11142;DHT22;5625;50.122;19.864;2024-03-06T01:14:23;3.80;99.90
11142;DHT22;5625;50.122;19.864;2024-03-06T01:16:51;3.80;99.90
11142;DHT22;5625;50.122;19.864;2024-03-06T01:19:19;3.80;99.90
11142;DHT22;5625;50.122;19.864;2024-03-06T01:21:48;3.80;99.90
11142;DHT22;5625;50.122;19.864;2024-03-06T01:24:16;3.70;99.90
11142;DHT22;5625;50.122;19.864;2024-03-06T01:26:44;3.70;99.90
11142;DHT22;5625;50.122;19.864;2024-03-06T01:29:12;3.70;99.90
11142;DHT22;5625;50.122;19.864;2024-03-06T01:31:42;3.70;99.90
11142;DHT22;5625;50.122;19.864;2024-03-06T01:34:13;3.70;99.90
11142;DHT22;5625;50.122;19.864;2024-03-06T01:36:42;3.70;99.90
11142;DHT22;5625;50.122;19.864;2024-03-06T01:39:10;3.70;99.90
11142;DHT22;5625;50.122;19.864;2024-03-06T01:41:44;3.60;99.90
11142;DHT22;5625;50.122;19.864;2024-03-06T01:44:12;3.60;99.90
11142;DHT22;5625;50.122;19.864;2024-03-06T01:46:43;3.60;99.90
11142;DHT22;5625;50.122;19.864;2024-03-06T01:49:11;3.60;99.90
11142;DHT22;5625;50.122;19.864;2024-03-06T01:51:50;3.60;99.90
11142;DHT22;5625;50.122;19.864;2024-03-06T01:54:19;3.50;99.90
11142;DHT22;5625;50.122;19.864;2024-03-06T01:56:48;3.50;99.90
11142;DHT22;5625;50.122;19.864;2024-03-06T01:59:19;3.50;99.90
11142;DHT22;5625;50.122;19.864;2024-03-06T02:02:03;3.40;99.90
11142;DHT22;5625;50.122;19.864;2024-03-06T02:04:32;3.40;99.90
11142;DHT22;5625;50.122;19.864;2024-03-06T02:07:01;3.40;99.90
11142;DHT22;5625;50.122;19.864;2024-03-06T02:09:30;3.40;99.90
11142;DHT22;5625;50.122;19.864;2024-03-06T02:11:58;3.40;99.90
11142;DHT22;5625;50.122;19.864;2024-03-06T02:14:27;3.40;99.90
11142;DHT22;5625;50.122;19.864;2024-03-06T02:16:56;3.30;99.90
11142;DHT22;5625;50.122;19.864;2024-03-06T02:19:40;3.30;99.90
11142;DHT22;5625;50.122;19.864;2024-03-06T02:22:10;3.20;99.90
11142;DHT22;5625;50.122;19.864;2024-03-06T02:24:44;3.20;99.90
11142;DHT22;5625;50.122;19.864;2024-03-06T02:27:13;3.20;99.90
11142;DHT22;5625;50.122;19.864;2024-03-06T02:29:41;3.20;99.90
11142;DHT22;5625;50.122;19.864;2024-03-06T02:32:12;3.20;99.90
11142;DHT22;5625;50.122;19.864;2024-03-06T02:34:41;3.20;99.90
11142;DHT22;5625;50.122;19.864;2024-03-06T02:37:10;3.20;99.90
11142;DHT22;5625;50.122;19.864;2024-03-06T02:39:38;3.10;99.90
11142;DHT22;5625;50.122;19.864;2024-03-06T02:42:06;3.10;99.90
11142;DHT22;5625;50.122;19.864;2024-03-06T02:44:35;3.10;99.90
11142;DHT22;5625;50.122;19.864;2024-03-06T02:47:04;3.00;99.90
11142;DHT22;5625;50.122;19.864;2024-03-06T02:49:32;3.00;99.90
11142;DHT22;5625;50.122;19.864;2024-03-06T02:52:00;3.00;99.90
11142;DHT22;5625;50.122;19.864;2024-03-06T02:54:30;3.00;99.90
11142;DHT22;5625;50.122;19.864;2024-03-06T02:56:58;3.00;99.90
11142;DHT22;5625;50.122;19.864;2024-03-06T02:59:26;2.90;99.90
11142;DHT22;5625;50.122;19.864;2024-03-06T03:01:54;2.90;99.90
11142;DHT22;5625;50.122;19.864;2024-03-06T03:04:23;2.90;99.90
11142;DHT22;5625;50.122;19.864;2024-03-06T03:06:51;2.90;99.90
11142;DHT22;5625;50.122;19.864;2024-03-06T03:09:19;2.90;99.90
11142;DHT22;5625;50.122;19.864;2024-03-06T03:11:49;2.90;99.90
11142;DHT22;5625;50.122;19.864;2024-03-06T03:14:17;2.80;99.90
11142;DHT22;5625;50.122;19.864;2024-03-06T03:16:45;2.80;99.90
11142;DHT22;5625;50.122;19.864;2024-03-06T03:19:13;2.80;99.90
11142;DHT22;5625;50.122;19.864;2024-03-06T03:21:44;2.70;99.90
11142;DHT22;5625;50.122;19.864;2024-03-06T03:24:12;2.80;99.90
11142;DHT22;5625;50.122;19.864;2024-03-06T03:26:40;2.70;99.90
11142;DHT22;5625;50.122;19.864;2024-03-06T03:29:10;2.70;99.90
11142;DHT22;5625;50.122;19.864;2024-03-06T03:31:38;2.70;99.90
11142;DHT22;5625;50.122;19.864;2024-03-06T03:34:06;2.70;99.90
11142;DHT22;5625;50.122;19.864;2024-03-06T03:36:39;2.70;99.90
11142;DHT22;5625;50.122;19.864;2024-03-06T03:39:07;2.70;99.90
11142;DHT22;5625;50.122;19.864;2024-03-06T03:41:43;2.60;99.90
11142;DHT22;5625;50.122;19.864;2024-03-06T03:44:13;2.60;99.90
11142;DHT22;5625;50.122;19.864;2024-03-06T03:46:43;2.70;99.90
11142;DHT22;5625;50.122;19.864;2024-03-06T03:49:11;2.60;99.90
11142;DHT22;5625;50.122;19.864;2024-03-06T03:51:39;2.50;99.90
11142;DHT22;5625;50.122;19.864;2024-03-06T03:54:08;2.50;99.90
11142;DHT22;5625;50.122;19.864;2024-03-06T03:56:36;2.50;99.90
11142;DHT22;5625;50.122;19.864;2024-03-06T03:59:04;2.50;99.90
11142;DHT22;5625;50.122;19.864;2024-03-06T04:01:34;2.50;99.90
11142;DHT22;5625;50.122;19.864;2024-03-06T04:04:02;2.50;99.90
11142;DHT22;5625;50.122;19.864;2024-03-06T04:06:31;2.40;99.90
11142;DHT22;5625;50.122;19.864;2024-03-06T04:08:59;2.40;99.90
11142;DHT22;5625;50.122;19.864;2024-03-06T04:11:27;2.40;99.90
11142;DHT22;5625;50.122;19.864;2024-03-06T04:13:56;2.30;99.90
11142;DHT22;5625;50.122;19.864;2024-03-06T04:16:24;2.30;99.90
11142;DHT22;5625;50.122;19.864;2024-03-06T04:18:54;2.30;99.90
11142;DHT22;5625;50.122;19.864;2024-03-06T04:21:23;2.30;99.90
11142;DHT22;5625;50.122;19.864;2024-03-06T04:23:51;2.40;99.90
11142;DHT22;5625;50.122;19.864;2024-03-06T04:26:19;2.40;99.90
11142;DHT22;5625;50.122;19.864;2024-03-06T04:28:47;2.40;99.90
11142;DHT22;5625;50.122;19.864;2024-03-06T04:31:15;2.40;99.90
11142;DHT22;5625;50.122;19.864;2024-03-06T04:33:43;2.40;99.90
11142;DHT22;5625;50.122;19.864;2024-03-06T04:36:13;2.40;99.90
11142;DHT22;5625;50.122;19.864;2024-03-06T04:38:41;2.40;99.90
11142;DHT22;5625;50.122;19.864;2024-03-06T04:41:12;2.40;99.90
11142;DHT22;5625;50.122;19.864;2024-03-06T04:43:40;2.40;99.90
11142;DHT22;5625;50.122;19.864;2024-03-06T04:46:12;2.50;99.90
11142;DHT22;5625;50.122;19.864;2024-03-06T04:48:41;2.40;99.90
11142;DHT22;5625;50.122;19.864;2024-03-06T04:51:09;2.40;99.90
11142;DHT22;5625;50.122;19.864;2024-03-06T04:53:41;2.40;99.90
11142;DHT22;5625;50.122;19.864;2024-03-06T04:56:10;2.40;99.90
11142;DHT22;5625;50.122;19.864;2024-03-06T04:58:38;2.40;99.90
11142;DHT22;5625;50.122;19.864;2024-03-06T05:01:15;2.30;99.90
11142;DHT22;5625;50.122;19.864;2024-03-06T05:03:46;2.40;99.90
11142;DHT22;5625;50.122;19.864;2024-03-06T05:06:35;2.40;99.90
11142;DHT22;5625;50.122;19.864;2024-03-06T05:09:22;2.30;99.90
11142;DHT22;5625;50.122;19.864;2024-03-06T05:12:08;2.30;99.90
11142;DHT22;5625;50.122;19.864;2024-03-06T05:14:55;2.30;99.90
11142;DHT22;5625;50.122;19.864;2024-03-06T05:17:41;2.30;99.90
11142;DHT22;5625;50.122;19.864;2024-03-06T05:20:28;2.30;99.90
11142;DHT22;5625;50.122;19.864;2024-03-06T05:23:15;2.20;99.90
11142;DHT22;5625;50.122;19.864;2024-03-06T05:26:04;2.20;99.90
11142;DHT22;5625;50.122;19.864;2024-03-06T05:28:49;2.20;99.90
11142;DHT22;5625;50.122;19.864;2024-03-06T05:31:35;2.20;99.90
11142;DHT22;5625;50.122;19.864;2024-03-06T05:34:21;2.20;99.90
11142;DHT22;5625;50.122;19.864;2024-03-06T05:37:06;2.20;99.90
11142;DHT22;5625;50.122;19.864;2024-03-06T05:39:53;2.20;99.90
11142;DHT22;5625;50.122;19.864;2024-03-06T05:42:40;2.20;99.90
11142;DHT22;5625;50.122;19.864;2024-03-06T05:45:26;2.20;99.90
11142;DHT22;5625;50.122;19.864;2024-03-06T05:48:16;2.20;99.90
11142;DHT22;5625;50.122;19.864;2024-03-06T05:51:03;2.20;99.90
11142;DHT22;5625;50.122;19.864;2024-03-06T05:53:48;2.20;99.90
11142;DHT22;5625;50.122;19.864;2024-03-06T05:56:34;2.20;99.90
11142;DHT22;5625;50.122;19.864;2024-03-06T05:59:21;2.20;99.90
11142;DHT22;5625;50.122;19.864;2024-03-06T06:01:49;2.20;99.90
11142;DHT22;5625;50.122;19.864;2024-03-06T06:04:17;2.20;99.90
11142;DHT22;5625;50.122;19.864;2024-03-06T06:06:45;2.20;99.90
11142;DHT22;5625;50.122;19.864;2024-03-06T06:09:14;2.20;99.90
11142;DHT22;5625;50.122;19.864;2024-03-06T06:11:43;2.30;99.90
11142;DHT22;5625;50.122;19.864;2024-03-06T06:14:11;2.20;99.90
11142;DHT22;5625;50.122;19.864;2024-03-06T06:16:42;2.30;99.90
11142;DHT22;5625;50.122;19.864;2024-03-06T06:19:10;2.30;99.90
11142;DHT22;5625;50.122;19.864;2024-03-06T06:21:38;2.30;99.90
11142;DHT22;5625;50.122;19.864;2024-03-06T06:24:07;2.40;99.90
11142;DHT22;5625;50.122;19.864;2024-03-06T06:26:36;2.30;99.90
11142;DHT22;5625;50.122;19.864;2024-03-06T06:29:04;2.30;99.90
11142;DHT22;5625;50.122;19.864;2024-03-06T06:31:33;2.30;99.90
11142;DHT22;5625;50.122;19.864;2024-03-06T06:34:04;2.30;99.90
11142;DHT22;5625;50.122;19.864;2024-03-06T06:36:33;2.30;99.90
11142;DHT22;5625;50.122;19.864;2024-03-06T06:39:01;2.40;99.90
11142;DHT22;5625;50.122;19.864;2024-03-06T06:41:32;2.40;99.90
11142;DHT22;5625;50.122;19.864;2024-03-06T06:44:01;2.40;99.90
11142;DHT22;5625;50.122;19.864;2024-03-06T06:46:29;2.50;99.90
11142;DHT22;5625;50.122;19.864;2024-03-06T06:48:58;2.50;99.90
11142;DHT22;5625;50.122;19.864;2024-03-06T06:51:28;2.50;99.90
11142;DHT22;5625;50.122;19.864;2024-03-06T06:53:56;2.50;99.90
11142;DHT22;5625;50.122;19.864;2024-03-06T06:56:26;2.50;99.90
11142;DHT22;5625;50.122;19.864;2024-03-06T06:58:55;2.60;99.90
11142;DHT22;5625;50.122;19.864;2024-03-06T07:01:23;2.60;99.90
11142;DHT22;5625;50.122;19.864;2024-03-06T07:03:52;2.60;99.90
11142;DHT22;5625;50.122;19.864;2024-03-06T07:06:20;2.60;99.90
11142;DHT22;5625;50.122;19.864;2024-03-06T07:08:50;2.70;99.90
11142;DHT22;5625;50.122;19.864;2024-03-06T07:11:18;2.70;99.90
11142;DHT22;5625;50.122;19.864;2024-03-06T07:13:47;2.80;99.90
11142;DHT22;5625;50.122;19.864;2024-03-06T07:16:15;2.80;99.90
11142;DHT22;5625;50.122;19.864;2024-03-06T07:18:44;2.80;99.90
11142;DHT22;5625;50.122;19.864;2024-03-06T07:21:13;2.90;99.90
11142;DHT22;5625;50.122;19.864;2024-03-06T07:23:41;2.90;99.90
11142;DHT22;5625;50.122;19.864;2024-03-06T07:26:11;3.00;99.90
11142;DHT22;5625;50.122;19.864;2024-03-06T07:28:39;3.00;99.90
11142;DHT22;5625;50.122;19.864;2024-03-06T07:31:08;3.10;99.90
11142;DHT22;5625;50.122;19.864;2024-03-06T07:33:36;3.10;99.90
11142;DHT22;5625;50.122;19.864;2024-03-06T07:36:05;3.10;99.90
11142;DHT22;5625;50.122;19.864;2024-03-06T07:38:33;3.10;99.90
11142;DHT22;5625;50.122;19.864;2024-03-06T07:41:02;3.10;99.90
11142;DHT22;5625;50.122;19.864;2024-03-06T07:43:32;3.20;99.90
11142;DHT22;5625;50.122;19.864;2024-03-06T07:46:00;3.20;99.90
11142;DHT22;5625;50.122;19.864;2024-03-06T07:48:29;3.20;99.90
11142;DHT22;5625;50.122;19.864;2024-03-06T07:50:57;3.20;99.90
11142;DHT22;5625;50.122;19.864;2024-03-06T07:53:25;3.30;99.90
11142;DHT22;5625;50.122;19.864;2024-03-06T07:55:55;3.30;99.90
11142;DHT22;5625;50.122;19.864;2024-03-06T07:58:23;3.30;99.90
11142;DHT22;5625;50.122;19.864;2024-03-06T08:00:53;3.30;99.90
11142;DHT22;5625;50.122;19.864;2024-03-06T08:03:23;3.30;99.90
11142;DHT22;5625;50.122;19.864;2024-03-06T08:05:52;3.40;99.90
11142;DHT22;5625;50.122;19.864;2024-03-06T08:08:20;3.40;99.90
11142;DHT22;5625;50.122;19.864;2024-03-06T08:10:48;3.40;99.90
11142;DHT22;5625;50.122;19.864;2024-03-06T08:13:17;3.40;99.90
11142;DHT22;5625;50.122;19.864;2024-03-06T08:15:45;3.40;99.90
11142;DHT22;5625;50.122;19.864;2024-03-06T08:18:15;3.50;99.90
11142;DHT22;5625;50.122;19.864;2024-03-06T08:20:43;3.50;99.90
11142;DHT22;5625;50.122;19.864;2024-03-06T08:23:12;3.50;99.90
11142;DHT22;5625;50.122;19.864;2024-03-06T08:25:40;3.50;99.90
11142;DHT22;5625;50.122;19.864;2024-03-06T08:28:08;3.50;99.90
11142;DHT22;5625;50.122;19.864;2024-03-06T08:30:36;3.50;99.90
11142;DHT22;5625;50.122;19.864;2024-03-06T08:33:05;3.50;99.90
11142;DHT22;5625;50.122;19.864;2024-03-06T08:35:34;3.60;99.90
11142;DHT22;5625;50.122;19.864;2024-03-06T08:38:03;3.60;99.90
11142;DHT22;5625;50.122;19.864;2024-03-06T08:40:34;3.60;99.90
11142;DHT22;5625;50.122;19.864;2024-03-06T08:43:02;3.70;99.90
11142;DHT22;5625;50.122;19.864;2024-03-06T08:45:29;3.70;99.90
11142;DHT22;5625;50.122;19.864;2024-03-06T08:47:58;3.70;99.90
11142;DHT22;5625;50.122;19.864;2024-03-06T08:50:26;3.70;99.90
11142;DHT22;5625;50.122;19.864;2024-03-06T08:52:56;3.70;99.90
11142;DHT22;5625;50.122;19.864;2024-03-06T08:55:24;3.70;99.90
11142;DHT22;5625;50.122;19.864;2024-03-06T08:57:52;3.70;99.90
11142;DHT22;5625;50.122;19.864;2024-03-06T09:00:21;3.80;99.90
11142;DHT22;5625;50.122;19.864;2024-03-06T09:02:50;3.80;99.90
11142;DHT22;5625;50.122;19.864;2024-03-06T09:05:18;3.80;99.90
11142;DHT22;5625;50.122;19.864;2024-03-06T09:07:47;3.80;99.90
11142;DHT22;5625;50.122;19.864;2024-03-06T09:10:17;3.90;99.90
11142;DHT22;5625;50.122;19.864;2024-03-06T09:12:46;3.90;99.90
11142;DHT22;5625;50.122;19.864;2024-03-06T09:15:16;3.90;99.90
11142;DHT22;5625;50.122;19.864;2024-03-06T09:17:45;3.90;99.90
11142;DHT22;5625;50.122;19.864;2024-03-06T09:20:14;3.90;99.90
11142;DHT22;5625;50.122;19.864;2024-03-06T09:22:43;3.90;99.90
11142;DHT22;5625;50.122;19.864;2024-03-06T09:25:11;3.90;99.90
11142;DHT22;5625;50.122;19.864;2024-03-06T09:27:44;3.90;99.90
11142;DHT22;5625;50.122;19.864;2024-03-06T09:30:13;4.00;99.90
11142;DHT22;5625;50.122;19.864;2024-03-06T09:32:42;4.00;99.90
11142;DHT22;5625;50.122;19.864;2024-03-06T09:35:11;4.00;99.90
11142;DHT22;5625;50.122;19.864;2024-03-06T09:37:41;4.00;99.90
11142;DHT22;5625;50.122;19.864;2024-03-06T09:40:10;4.00;99.90
11142;DHT22;5625;50.122;19.864;2024-03-06T09:42:40;4.00;99.90
11142;DHT22;5625;50.122;19.864;2024-03-06T09:45:10;4.00;99.90
11142;DHT22;5625;50.122;19.864;2024-03-06T09:47:38;4.10;99.90
11142;DHT22;5625;50.122;19.864;2024-03-06T09:50:09;4.10;99.90
11142;DHT22;5625;50.122;19.864;2024-03-06T09:52:40;4.10;99.90
11142;DHT22;5625;50.122;19.864;2024-03-06T09:55:10;4.10;99.90
11142;DHT22;5625;50.122;19.864;2024-03-06T09:57:39;4.10;99.90
11142;DHT22;5625;50.122;19.864;2024-03-06T10:00:10;4.20;99.90
11142;DHT22;5625;50.122;19.864;2024-03-06T10:02:48;4.20;99.90
11142;DHT22;5625;50.122;19.864;2024-03-06T10:05:21;4.30;99.90
11142;DHT22;5625;50.122;19.864;2024-03-06T10:07:50;4.30;99.90
11142;DHT22;5625;50.122;19.864;2024-03-06T10:10:19;4.30;99.90
11142;DHT22;5625;50.122;19.864;2024-03-06T10:12:49;4.30;99.90
11142;DHT22;5625;50.122;19.864;2024-03-06T10:15:19;4.30;99.90
11142;DHT22;5625;50.122;19.864;2024-03-06T10:17:48;4.40;99.90
11142;DHT22;5625;50.122;19.864;2024-03-06T10:20:18;4.40;99.90
11142;DHT22;5625;50.122;19.864;2024-03-06T10:22:49;4.40;99.90
11142;DHT22;5625;50.122;19.864;2024-03-06T10:25:22;4.50;99.90
11142;DHT22;5625;50.122;19.864;2024-03-06T10:28:06;4.50;99.90
11142;DHT22;5625;50.122;19.864;2024-03-06T10:30:37;4.50;99.90
11142;DHT22;5625;50.122;19.864;2024-03-06T10:33:09;4.60;99.90
11142;DHT22;5625;50.122;19.864;2024-03-06T10:35:39;4.60;99.90
11142;DHT22;5625;50.122;19.864;2024-03-06T10:38:08;4.60;99.90
11142;DHT22;5625;50.122;19.864;2024-03-06T10:40:38;4.70;99.90
11142;DHT22;5625;50.122;19.864;2024-03-06T10:43:08;4.70;99.90
11142;DHT22;5625;50.122;19.864;2024-03-06T10:45:46;4.70;99.90
11142;DHT22;5625;50.122;19.864;2024-03-06T10:48:16;4.70;99.90
11142;DHT22;5625;50.122;19.864;2024-03-06T10:50:45;4.70;99.90
11142;DHT22;5625;50.122;19.864;2024-03-06T10:53:16;4.80;99.90
11142;DHT22;5625;50.122;19.864;2024-03-06T10:55:50;4.80;99.90
11142;DHT22;5625;50.122;19.864;2024-03-06T10:58:20;4.80;99.90
11142;DHT22;5625;50.122;19.864;2024-03-06T11:00:50;4.80;99.90
11142;DHT22;5625;50.122;19.864;2024-03-06T11:03:19;4.90;99.90
11142;DHT22;5625;50.122;19.864;2024-03-06T11:05:47;4.90;99.90
11142;DHT22;5625;50.122;19.864;2024-03-06T11:08:19;4.90;99.90
11142;DHT22;5625;50.122;19.864;2024-03-06T11:10:48;4.90;99.90
11142;DHT22;5625;50.122;19.864;2024-03-06T11:13:23;4.90;99.90
11142;DHT22;5625;50.122;19.864;2024-03-06T11:15:58;4.90;99.90
11142;DHT22;5625;50.122;19.864;2024-03-06T11:18:43;4.90;99.90
11142;DHT22;5625;50.122;19.864;2024-03-06T11:21:47;5.00;99.90
11142;DHT22;5625;50.122;19.864;2024-03-06T11:24:20;5.00;99.90
11142;DHT22;5625;50.122;19.864;2024-03-06T11:26:59;5.00;99.90
11142;DHT22;5625;50.122;19.864;2024-03-06T11:29:28;5.00;99.90
11142;DHT22;5625;50.122;19.864;2024-03-06T11:32:03;5.00;99.90
11142;DHT22;5625;50.122;19.864;2024-03-06T11:34:35;5.00;99.90
11142;DHT22;5625;50.122;19.864;2024-03-06T11:37:04;5.10;99.90
11142;DHT22;5625;50.122;19.864;2024-03-06T11:39:36;5.10;99.90
11142;DHT22;5625;50.122;19.864;2024-03-06T11:42:06;5.10;99.90
11142;DHT22;5625;50.122;19.864;2024-03-06T11:44:36;5.10;99.90
11142;DHT22;5625;50.122;19.864;2024-03-06T11:47:08;5.10;99.90
11142;DHT22;5625;50.122;19.864;2024-03-06T11:49:37;5.10;99.90
11142;DHT22;5625;50.122;19.864;2024-03-06T11:52:08;5.10;99.90
11142;DHT22;5625;50.122;19.864;2024-03-06T11:54:37;5.10;99.90
11142;DHT22;5625;50.122;19.864;2024-03-06T11:57:06;5.10;99.90
11142;DHT22;5625;50.122;19.864;2024-03-06T11:59:36;5.10;99.90
11142;DHT22;5625;50.122;19.864;2024-03-06T12:02:07;5.10;99.90
11142;DHT22;5625;50.122;19.864;2024-03-06T12:04:37;5.20;99.90
11142;DHT22;5625;50.122;19.864;2024-03-06T12:07:06;5.20;99.90
11142;DHT22;5625;50.122;19.864;2024-03-06T12:09:38;5.20;99.90
11142;DHT22;5625;50.122;19.864;2024-03-06T12:12:10;5.20;99.90
11142;DHT22;5625;50.122;19.864;2024-03-06T12:14:41;5.20;99.90
11142;DHT22;5625;50.122;19.864;2024-03-06T12:17:13;5.30;99.90
11142;DHT22;5625;50.122;19.864;2024-03-06T12:19:43;5.20;99.90
11142;DHT22;5625;50.122;19.864;2024-03-06T12:22:12;5.30;99.90
11142;DHT22;5625;50.122;19.864;2024-03-06T12:24:41;5.30;99.90
11142;DHT22;5625;50.122;19.864;2024-03-06T12:27:10;5.30;99.90
11142;DHT22;5625;50.122;19.864;2024-03-06T12:29:39;5.40;99.90
11142;DHT22;5625;50.122;19.864;2024-03-06T12:32:17;5.30;99.90
11142;DHT22;5625;50.122;19.864;2024-03-06T12:34:56;5.30;99.90
11142;DHT22;5625;50.122;19.864;2024-03-06T12:37:30;5.40;99.90
11142;DHT22;5625;50.122;19.864;2024-03-06T12:39:59;5.40;99.90
11142;DHT22;5625;50.122;19.864;2024-03-06T12:42:28;5.40;99.90
11142;DHT22;5625;50.122;19.864;2024-03-06T12:44:56;5.40;99.90
11142;DHT22;5625;50.122;19.864;2024-03-06T12:47:26;5.40;99.90
11142;DHT22;5625;50.122;19.864;2024-03-06T12:49:54;5.40;99.90
11142;DHT22;5625;50.122;19.864;2024-03-06T12:52:24;5.40;99.90
11142;DHT22;5625;50.122;19.864;2024-03-06T12:54:52;5.40;99.90
11142;DHT22;5625;50.122;19.864;2024-03-06T12:57:20;5.40;99.90
11142;DHT22;5625;50.122;19.864;2024-03-06T12:59:48;5.40;99.90
11142;DHT22;5625;50.122;19.864;2024-03-06T13:02:17;5.40;99.90
11142;DHT22;5625;50.122;19.864;2024-03-06T13:04:46;5.40;99.90
11142;DHT22;5625;50.122;19.864;2024-03-06T13:07:15;5.40;99.90
11142;DHT22;5625;50.122;19.864;2024-03-06T13:09:43;5.50;99.90
11142;DHT22;5625;50.122;19.864;2024-03-06T13:12:11;5.50;99.90
11142;DHT22;5625;50.122;19.864;2024-03-06T13:14:39;5.50;99.90
11142;DHT22;5625;50.122;19.864;2024-03-06T13:17:08;5.50;99.90
11142;DHT22;5625;50.122;19.864;2024-03-06T13:19:36;5.50;99.90
11142;DHT22;5625;50.122;19.864;2024-03-06T13:22:08;5.50;99.90
11142;DHT22;5625;50.122;19.864;2024-03-06T13:24:36;5.50;99.90
11142;DHT22;5625;50.122;19.864;2024-03-06T13:27:10;5.50;99.90
11142;DHT22;5625;50.122;19.864;2024-03-06T13:29:38;5.50;99.90
11142;DHT22;5625;50.122;19.864;2024-03-06T13:32:07;5.50;99.90
11142;DHT22;5625;50.122;19.864;2024-03-06T13:34:35;5.40;99.90
11142;DHT22;5625;50.122;19.864;2024-03-06T13:37:03;5.40;99.90
11142;DHT22;5625;50.122;19.864;2024-03-06T13:39:35;5.40;99.90
11142;DHT22;5625;50.122;19.864;2024-03-06T13:42:04;5.50;99.90
11142;DHT22;5625;50.122;19.864;2024-03-06T13:44:32;5.50;99.90
11142;DHT22;5625;50.122;19.864;2024-03-06T13:47:01;5.50;99.90
11142;DHT22;5625;50.122;19.864;2024-03-06T13:49:37;5.50;99.90
11142;DHT22;5625;50.122;19.864;2024-03-06T13:52:07;5.50;99.90
11142;DHT22;5625;50.122;19.864;2024-03-06T13:54:39;5.50;99.90
11142;DHT22;5625;50.122;19.864;2024-03-06T13:57:08;5.50;99.90
11142;DHT22;5625;50.122;19.864;2024-03-06T13:59:37;5.50;99.90
11142;DHT22;5625;50.122;19.864;2024-03-06T14:02:06;5.50;99.90
11142;DHT22;5625;50.122;19.864;2024-03-06T14:04:34;5.50;99.90
11142;DHT22;5625;50.122;19.864;2024-03-06T14:07:03;5.50;99.90
11142;DHT22;5625;50.122;19.864;2024-03-06T14:09:31;5.50;99.90
11142;DHT22;5625;50.122;19.864;2024-03-06T14:12:01;5.50;99.90
11142;DHT22;5625;50.122;19.864;2024-03-06T14:14:29;5.50;99.90
11142;DHT22;5625;50.122;19.864;2024-03-06T14:16:59;5.50;99.90
11142;DHT22;5625;50.122;19.864;2024-03-06T14:19:29;5.50;99.90
11142;DHT22;5625;50.122;19.864;2024-03-06T14:21:58;5.50;99.90
11142;DHT22;5625;50.122;19.864;2024-03-06T14:24:30;5.50;99.90
11142;DHT22;5625;50.122;19.864;2024-03-06T14:26:58;5.50;99.90
11142;DHT22;5625;50.122;19.864;2024-03-06T14:29:28;5.50;99.90
11142;DHT22;5625;50.122;19.864;2024-03-06T14:31:57;5.50;99.90
11142;DHT22;5625;50.122;19.864;2024-03-06T14:34:25;5.50;99.90
11142;DHT22;5625;50.122;19.864;2024-03-06T14:36:53;5.50;99.90
11142;DHT22;5625;50.122;19.864;2024-03-06T14:39:22;5.50;99.90
11142;DHT22;5625;50.122;19.864;2024-03-06T14:41:52;5.50;99.90
11142;DHT22;5625;50.122;19.864;2024-03-06T14:44:21;5.50;99.90
11142;DHT22;5625;50.122;19.864;2024-03-06T14:46:50;5.50;99.90
11142;DHT22;5625;50.122;19.864;2024-03-06T14:49:19;5.50;99.90
11142;DHT22;5625;50.122;19.864;2024-03-06T14:51:47;5.50;99.90
11142;DHT22;5625;50.122;19.864;2024-03-06T14:54:15;5.50;99.90
11142;DHT22;5625;50.122;19.864;2024-03-06T14:56:43;5.50;99.90
11142;DHT22;5625;50.122;19.864;2024-03-06T14:59:12;5.50;99.90
11142;DHT22;5625;50.122;19.864;2024-03-06T15:01:40;5.50;99.90
11142;DHT22;5625;50.122;19.864;2024-03-06T15:04:10;5.50;99.90
11142;DHT22;5625;50.122;19.864;2024-03-06T15:06:39;5.50;99.90
11142;DHT22;5625;50.122;19.864;2024-03-06T15:09:07;5.50;99.90
11142;DHT22;5625;50.122;19.864;2024-03-06T15:11:38;5.50;99.90
11142;DHT22;5625;50.122;19.864;2024-03-06T15:14:07;5.50;99.90
11142;DHT22;5625;50.122;19.864;2024-03-06T15:16:37;5.50;99.90
11142;DHT22;5625;50.122;19.864;2024-03-06T15:19:06;5.50;99.90
11142;DHT22;5625;50.122;19.864;2024-03-06T15:21:36;5.50;99.90
11142;DHT22;5625;50.122;19.864;2024-03-06T15:24:04;5.50;99.90
11142;DHT22;5625;50.122;19.864;2024-03-06T15:26:33;5.50;99.90
11142;DHT22;5625;50.122;19.864;2024-03-06T15:29:02;5.50;99.90
11142;DHT22;5625;50.122;19.864;2024-03-06T15:31:33;5.50;99.90
11142;DHT22;5625;50.122;19.864;2024-03-06T15:34:01;5.50;99.90
11142;DHT22;5625;50.122;19.864;2024-03-06T15:36:29;5.40;99.90
11142;DHT22;5625;50.122;19.864;2024-03-06T15:38:59;5.40;99.90
11142;DHT22;5625;50.122;19.864;2024-03-06T15:41:27;5.50;99.90
11142;DHT22;5625;50.122;19.864;2024-03-06T15:43:57;5.50;99.90
11142;DHT22;5625;50.122;19.864;2024-03-06T15:46:26;5.40;99.90
11142;DHT22;5625;50.122;19.864;2024-03-06T15:48:58;5.40;99.90
11142;DHT22;5625;50.122;19.864;2024-03-06T15:51:26;5.40;99.90
11142;DHT22;5625;50.122;19.864;2024-03-06T15:53:54;5.40;99.90
11142;DHT22;5625;50.122;19.864;2024-03-06T15:56:25;5.40;99.90
11142;DHT22;5625;50.122;19.864;2024-03-06T15:58:53;5.40;99.90
11142;DHT22;5625;50.122;19.864;2024-03-06T16:01:22;5.40;99.90
11142;DHT22;5625;50.122;19.864;2024-03-06T16:03:50;5.40;99.90